createdAt,value
2023-02-18T00:02:01.308Z,-7.80
2023-02-18T00:04:35.210Z,-7.84
2023-02-18T00:07:08.759Z,-7.84
2023-02-18T00:09:42.171Z,-7.83
2023-02-18T00:12:15.456Z,-7.86
2023-02-18T00:14:48.675Z,-7.90
2023-02-18T00:17:22.147Z,-7.88
2023-02-18T00:19:55.684Z,-7.87
2023-02-18T00:22:29.066Z,-7.91
2023-02-18T00:25:02.556Z,-7.84
2023-02-18T00:27:36.051Z,-7.88
2023-02-18T00:30:11.949Z,-7.91
2023-02-18T00:32:45.556Z,-7.93
2023-02-18T00:35:19.703Z,-7.95
2023-02-18T00:37:54.738Z,-7.99
2023-02-18T00:40:28.188Z,-7.99
2023-02-18T00:43:01.721Z,-8.03
2023-02-18T00:45:36.847Z,-8.00
2023-02-18T00:48:10.294Z,-8.03
2023-02-18T00:50:43.844Z,-8.05
2023-02-18T00:53:18.306Z,-8.07
2023-02-18T00:55:52.297Z,-8.06
2023-02-18T00:58:26.008Z,-8.12
2023-02-18T01:00:59.723Z,-8.14
2023-02-18T01:03:33.445Z,-8.15
2023-02-18T01:06:08.817Z,-8.16
2023-02-18T01:08:43.492Z,-8.19
2023-02-18T01:11:17.051Z,-8.21
2023-02-18T01:13:52.027Z,-8.22
2023-02-18T01:16:25.800Z,-8.24
2023-02-18T01:18:59.547Z,-8.28
2023-02-18T01:21:32.652Z,-8.30
2023-02-18T01:24:07.291Z,-8.31
2023-02-18T01:26:41.249Z,-8.34
2023-02-18T01:29:14.823Z,-8.35
2023-02-18T01:31:48.707Z,-8.35
2023-02-18T01:34:22.347Z,-8.37
2023-02-18T01:36:58.033Z,-8.39
2023-02-18T01:39:31.815Z,-8.40
2023-02-18T01:42:05.556Z,-8.42
2023-02-18T01:44:40.468Z,-8.40
2023-02-18T01:47:13.885Z,-8.44
2023-02-18T01:49:49.679Z,-8.44
2023-02-18T01:52:25.903Z,-8.45
2023-02-18T01:55:00.458Z,-8.45
2023-02-18T01:57:37.792Z,-8.49
2023-02-18T02:00:16.184Z,-8.51
2023-02-18T02:02:54.127Z,-8.51
2023-02-18T02:05:30.005Z,-8.54
2023-02-18T02:08:04.583Z,-8.54
2023-02-18T02:10:43.689Z,-8.61
2023-02-18T02:13:20.136Z,-8.61
2023-02-18T02:15:58.270Z,-8.72
2023-02-18T02:18:39.565Z,-8.68
2023-02-18T02:21:55.621Z,-8.65
2023-02-18T02:27:51.356Z,-8.46
2023-02-18T02:30:50.954Z,-8.52
2023-02-18T02:36:43.965Z,-8.24
2023-02-18T02:39:20.275Z,-8.34
2023-02-18T02:41:56.675Z,-8.21
2023-02-18T02:44:34.865Z,-8.18
2023-02-18T02:47:12.592Z,-8.11
2023-02-18T02:49:49.167Z,-8.16
2023-02-18T02:52:25.776Z,-8.17
2023-02-18T02:54:59.864Z,-8.22
2023-02-18T02:57:49.958Z,-8.18
2023-02-18T03:00:28.310Z,-8.23
2023-02-18T03:03:46.074Z,-8.27
2023-02-18T03:06:39.834Z,-8.28
2023-02-18T03:09:18.041Z,-8.28
2023-02-18T03:11:55.373Z,-8.36
2023-02-18T03:14:35.290Z,-8.36
2023-02-18T03:17:11.619Z,-8.34
2023-02-18T03:19:48.705Z,-8.41
2023-02-18T03:22:22.257Z,-8.41
2023-02-18T03:24:59.012Z,-8.39
2023-02-18T03:27:36.857Z,-8.39
2023-02-18T03:30:15.136Z,-8.44
2023-02-18T03:32:50.801Z,-8.42
2023-02-18T03:35:24.949Z,-8.45
2023-02-18T03:38:03.761Z,-8.45
2023-02-18T03:40:37.161Z,-8.42
2023-02-18T03:43:10.769Z,-8.44
2023-02-18T03:45:44.440Z,-8.43
2023-02-18T03:48:18.671Z,-8.49
2023-02-18T03:50:52.132Z,-8.46
2023-02-18T03:53:25.656Z,-8.48
2023-02-18T03:56:00.156Z,-8.47
2023-02-18T03:58:33.430Z,-8.54
2023-02-18T04:01:07.641Z,-8.56
2023-02-18T04:03:41.024Z,-8.49
2023-02-18T04:06:14.857Z,-8.53
2023-02-18T04:08:48.597Z,-8.52
2023-02-18T04:11:21.996Z,-8.46
2023-02-18T04:13:55.352Z,-8.50
2023-02-18T04:16:28.977Z,-8.52
2023-02-18T04:19:02.775Z,-8.53
2023-02-18T04:21:36.769Z,-8.62
2023-02-18T04:24:10.238Z,-8.69
2023-02-18T04:26:43.752Z,-8.66
2023-02-18T04:29:17.416Z,-8.69
2023-02-18T04:31:50.807Z,-8.64
2023-02-18T04:34:24.299Z,-8.69
2023-02-18T04:36:57.768Z,-8.73
2023-02-18T04:39:31.071Z,-8.87
2023-02-18T04:42:07.142Z,-8.89
2023-02-18T04:44:41.424Z,-8.94
2023-02-18T04:47:14.975Z,-9.00
2023-02-18T04:49:48.269Z,-8.99
2023-02-18T04:52:22.144Z,-9.01
2023-02-18T04:54:55.590Z,-9.01
2023-02-18T04:57:29.095Z,-8.97
2023-02-18T05:00:03.750Z,-8.97
2023-02-18T05:02:37.267Z,-9.01
2023-02-18T05:05:11.601Z,-8.97
2023-02-18T05:07:47.179Z,-8.91
2023-02-18T05:10:21.126Z,-8.82
2023-02-18T05:12:54.857Z,-8.73
2023-02-18T05:15:29.001Z,-8.69
2023-02-18T05:18:02.509Z,-8.74
2023-02-18T05:20:36.095Z,-8.69
2023-02-18T05:23:09.253Z,-8.69
2023-02-18T05:25:42.537Z,-8.66
2023-02-18T05:28:15.790Z,-8.66
2023-02-18T05:30:49.594Z,-8.61
2023-02-18T05:33:23.145Z,-8.60
2023-02-18T05:35:56.762Z,-8.61
2023-02-18T05:38:30.581Z,-8.54
2023-02-18T05:41:06.963Z,-8.58
2023-02-18T05:43:59.410Z,-8.58
2023-02-18T05:46:33.228Z,-8.55
2023-02-18T05:49:06.718Z,-8.48
2023-02-18T05:51:40.302Z,-8.43
2023-02-18T05:54:13.781Z,-8.50
2023-02-18T05:56:47.357Z,-8.53
2023-02-18T05:59:21.343Z,-8.45
2023-02-18T06:01:55.060Z,-8.47
2023-02-18T06:04:28.561Z,-8.48
2023-02-18T06:07:02.013Z,-8.38
2023-02-18T06:09:35.497Z,-8.42
2023-02-18T06:12:09.874Z,-8.34
2023-02-18T06:14:43.463Z,-8.18
2023-02-18T06:17:18.861Z,-8.27
2023-02-18T06:19:52.511Z,-8.20
2023-02-18T06:22:25.988Z,-8.03
2023-02-18T06:24:59.513Z,-7.99
2023-02-18T06:27:34.654Z,-7.99
2023-02-18T06:30:10.463Z,-8.05
2023-02-18T06:32:43.905Z,-8.03
2023-02-18T06:35:17.473Z,-8.10
2023-02-18T06:37:50.872Z,-8.05
2023-02-18T06:40:24.443Z,-7.95
2023-02-18T06:42:57.865Z,-7.96
2023-02-18T06:45:31.250Z,-7.95
2023-02-18T06:48:05.962Z,-7.81
2023-02-18T06:50:39.058Z,-7.84
2023-02-18T06:53:12.713Z,-7.82
2023-02-18T06:55:46.696Z,-7.42
2023-02-18T06:58:20.185Z,-7.34
2023-02-18T07:00:53.727Z,-7.35
2023-02-18T07:03:27.271Z,-7.01
2023-02-18T07:06:00.850Z,-6.62
2023-02-18T07:08:35.946Z,-6.60
2023-02-18T07:11:09.748Z,-6.40
2023-02-18T07:13:42.969Z,-6.33
2023-02-18T07:16:16.261Z,-6.09
2023-02-18T07:18:49.737Z,-6.03
2023-02-18T07:21:23.464Z,-5.65
2023-02-18T07:23:56.827Z,-5.60
2023-02-18T07:26:30.345Z,-5.41
2023-02-18T07:29:03.743Z,-5.27
2023-02-18T07:31:38.998Z,-5.35
2023-02-18T07:34:12.503Z,-5.27
2023-02-18T07:36:45.825Z,-5.38
2023-02-18T07:39:20.935Z,-5.34
2023-02-18T07:41:54.814Z,-4.99
2023-02-18T07:44:29.490Z,-4.94
2023-02-18T07:47:02.904Z,-4.80
2023-02-18T07:49:36.349Z,-4.15
2023-02-18T07:52:09.892Z,-4.07
2023-02-18T07:54:43.406Z,-2.79
2023-02-18T07:57:16.899Z,-2.06
2023-02-18T07:59:50.653Z,-2.29
2023-02-18T08:02:25.434Z,-3.12
2023-02-18T08:04:58.898Z,-3.60
2023-02-18T08:07:34.139Z,-3.89
2023-02-18T08:10:09.799Z,-3.73
2023-02-18T08:12:44.262Z,-3.49
2023-02-18T08:15:17.997Z,-3.11
2023-02-18T08:17:51.492Z,-3.05
2023-02-18T08:20:25.211Z,-2.99
2023-02-18T08:22:58.777Z,-3.21
2023-02-18T08:25:32.126Z,-3.50
2023-02-18T08:28:06.034Z,-4.09
2023-02-18T08:30:39.868Z,-4.60
2023-02-18T08:33:13.925Z,-5.04
2023-02-18T08:35:51.763Z,-5.23
2023-02-18T08:38:26.666Z,-5.49
2023-02-18T08:41:05.959Z,-5.64
2023-02-18T08:43:39.815Z,-5.56
2023-02-18T08:46:14.609Z,-5.60
2023-02-18T08:48:48.678Z,-5.65
2023-02-18T08:51:26.387Z,-5.68
2023-02-18T08:53:58.984Z,-5.68
2023-02-18T08:56:32.798Z,-5.71
2023-02-18T08:59:06.588Z,-5.65
2023-02-18T09:01:40.179Z,-5.61
2023-02-18T09:04:13.759Z,-5.50
2023-02-18T09:06:47.195Z,-5.45
2023-02-18T09:09:20.751Z,-5.24
2023-02-18T09:11:54.087Z,-5.18
2023-02-18T09:14:27.684Z,-5.04
2023-02-18T09:17:01.246Z,-4.94
2023-02-18T09:19:35.760Z,-4.65
2023-02-18T09:22:09.156Z,-4.17
2023-02-18T09:24:43.872Z,-4.25
2023-02-18T09:27:17.389Z,-4.28
2023-02-18T09:29:51.842Z,-4.36
2023-02-18T09:32:34.358Z,-4.26
2023-02-18T09:35:00.147Z,-3.74
2023-02-18T09:37:34.386Z,-3.36
2023-02-18T09:40:09.840Z,-3.32
2023-02-18T09:42:43.481Z,-3.04
2023-02-18T09:45:17.178Z,-3.16
2023-02-18T09:47:52.209Z,-3.37
2023-02-18T09:50:28.993Z,-3.18
2023-02-18T09:53:03.827Z,-3.20
2023-02-18T09:55:41.272Z,-3.37
2023-02-18T09:58:17.817Z,-3.53
2023-02-18T10:00:54.207Z,-3.16
2023-02-18T10:03:30.773Z,-2.40
2023-02-18T10:06:08.209Z,-2.34
2023-02-18T10:08:45.907Z,-1.86
2023-02-18T10:11:21.984Z,-1.67
2023-02-18T10:13:57.617Z,-1.68
2023-02-18T10:16:32.318Z,-1.93
2023-02-18T10:19:08.814Z,-1.05
2023-02-18T10:21:42.725Z,-0.87
2023-02-18T10:24:19.769Z,-1.31
2023-02-18T10:26:53.272Z,-0.91
2023-02-18T10:29:27.458Z,0.60
2023-02-18T10:32:03.947Z,1.06
2023-02-18T10:34:43.889Z,0.84
2023-02-18T10:38:01.621Z,1.52
2023-02-18T10:40:39.371Z,1.69
2023-02-18T10:43:13.095Z,2.21
2023-02-18T10:45:49.741Z,2.56
2023-02-18T10:48:31.308Z,1.62
2023-02-18T10:51:11.008Z,0.38
2023-02-18T10:53:47.121Z,-0.46
2023-02-18T10:56:36.950Z,-0.62
2023-02-18T10:59:15.819Z,-1.51
2023-02-18T11:01:50.742Z,-2.46
2023-02-18T11:04:27.462Z,-3.09
2023-02-18T11:07:03.739Z,-3.73
2023-02-18T11:09:43.556Z,-3.88
2023-02-18T11:12:20.682Z,-4.27
2023-02-18T11:15:06.909Z,-4.43
2023-02-18T11:17:40.858Z,-4.50
2023-02-18T11:20:27.418Z,-4.31
2023-02-18T11:23:03.679Z,-4.09
2023-02-18T11:25:38.786Z,-3.86
2023-02-18T11:28:26.998Z,-3.67
2023-02-18T11:31:03.794Z,-3.07
2023-02-18T11:33:40.747Z,-2.35
2023-02-18T11:36:21.490Z,-2.03
2023-02-18T11:38:57.797Z,-1.88
2023-02-18T11:41:37.552Z,-2.09
2023-02-18T11:44:21.775Z,-2.05
2023-02-18T11:47:02.407Z,-1.69
2023-02-18T11:49:36.920Z,-1.60
2023-02-18T11:52:20.012Z,-0.82
2023-02-18T11:55:04.840Z,-0.33
2023-02-18T11:57:41.338Z,0.01
2023-02-18T12:00:24.573Z,0.40
2023-02-18T12:03:01.024Z,0.71
2023-02-18T12:05:35.826Z,1.42
2023-02-18T12:08:14.687Z,1.76
2023-02-18T12:10:51.766Z,1.49
2023-02-18T12:13:29.487Z,1.75
2023-02-18T12:16:08.337Z,1.98
2023-02-18T12:18:52.969Z,1.91
2023-02-18T12:21:33.717Z,1.30
2023-02-18T12:24:22.615Z,0.84
2023-02-18T12:27:00.428Z,0.37
2023-02-18T12:29:36.353Z,0.84
2023-02-18T12:32:19.389Z,0.78
2023-02-18T12:35:03.082Z,0.99
2023-02-18T12:37:56.914Z,0.93
2023-02-18T12:40:52.087Z,1.19
2023-02-18T12:43:34.055Z,1.10
2023-02-18T12:46:23.471Z,0.63
2023-02-18T12:49:11.223Z,-0.08
2023-02-18T12:51:54.496Z,-0.37
2023-02-18T12:54:36.872Z,-0.58
2023-02-18T12:57:26.626Z,-1.02
2023-02-18T13:00:45.827Z,-1.78
2023-02-18T13:04:04.820Z,-2.46
2023-02-18T13:07:06.302Z,-3.04
2023-02-18T13:09:47.214Z,-3.11
2023-02-18T13:12:23.625Z,-3.35
2023-02-18T13:15:00.153Z,-3.62
2023-02-18T13:17:37.524Z,-3.94
2023-02-18T13:20:17.264Z,-4.07
2023-02-18T13:22:53.407Z,-4.17
2023-02-18T13:25:26.661Z,-4.30
2023-02-18T13:28:03.431Z,-4.40
2023-02-18T13:30:41.236Z,-4.44
2023-02-18T13:33:18.154Z,-4.51
2023-02-18T13:35:55.805Z,-4.56
2023-02-18T13:38:31.417Z,-4.67
2023-02-18T13:41:08.952Z,-4.75
2023-02-18T13:43:46.118Z,-4.84
2023-02-18T13:46:21.972Z,-4.86
2023-02-18T13:49:07.389Z,-4.92
2023-02-18T13:51:43.852Z,-4.95
2023-02-18T13:54:20.471Z,-4.93
2023-02-18T13:56:56.468Z,-4.94
2023-02-18T13:59:33.041Z,-4.93
2023-02-18T14:02:33.820Z,-5.01
2023-02-18T14:05:24.921Z,-5.00
2023-02-18T14:08:08.420Z,-5.10
2023-02-18T14:10:42.786Z,-5.15
2023-02-18T14:13:29.812Z,-5.09
2023-02-18T14:16:03.197Z,-5.11
2023-02-18T14:19:01.357Z,-5.24
2023-02-18T14:21:43.260Z,-5.38
2023-02-18T14:24:18.270Z,-5.39
2023-02-18T14:26:52.230Z,-5.42
2023-02-18T14:29:30.695Z,-5.43
2023-02-18T14:32:06.504Z,-5.42
2023-02-18T14:38:01.413Z,-5.36
2023-02-18T14:40:48.867Z,-5.39
2023-02-18T14:43:24.884Z,-5.39
2023-02-18T14:46:08.397Z,-5.42
2023-02-18T14:48:51.665Z,-5.51
2023-02-18T14:51:28.560Z,-5.57
2023-02-18T14:54:07.452Z,-5.51
2023-02-18T14:56:44.526Z,-5.44
2023-02-18T14:59:19.777Z,-5.43
2023-02-18T15:01:54.407Z,-5.47
2023-02-18T15:04:28.772Z,-5.55
2023-02-18T15:07:04.700Z,-5.51
2023-02-18T15:09:39.545Z,-5.54
2023-02-18T15:12:15.116Z,-5.49
2023-02-18T15:14:51.218Z,-5.52
2023-02-18T15:17:28.031Z,-5.51
2023-02-18T15:20:05.889Z,-5.46
2023-02-18T15:22:39.459Z,-5.50
2023-02-18T15:25:14.778Z,-5.47
2023-02-18T15:27:48.236Z,-5.42
2023-02-18T15:30:25.253Z,-5.35
2023-02-18T15:33:00.628Z,-5.39
2023-02-18T15:35:34.892Z,-5.41
2023-02-18T15:38:20.052Z,-5.43
2023-02-18T15:40:55.753Z,-5.41
2023-02-18T15:43:30.091Z,-5.41
2023-02-18T15:46:05.152Z,-5.43
2023-02-18T15:48:41.341Z,-5.40
2023-02-18T15:51:18.077Z,-5.39
2023-02-18T15:53:54.372Z,-5.31
2023-02-18T15:56:31.815Z,-5.35
2023-02-18T15:59:14.226Z,-5.45
2023-02-18T16:01:53.034Z,-5.41
2023-02-18T16:04:28.865Z,-5.54
2023-02-18T16:07:05.071Z,-5.56
2023-02-18T16:09:40.380Z,-5.61
2023-02-18T16:12:35.546Z,-5.62
2023-02-18T16:15:17.628Z,-5.56
2023-02-18T16:17:51.422Z,-5.52
2023-02-18T16:20:31.175Z,-5.52
2023-02-18T16:23:06.749Z,-5.55
2023-02-18T16:25:44.408Z,-5.60
2023-02-18T16:28:19.827Z,-5.60
2023-02-18T16:30:53.091Z,-5.59
2023-02-18T16:33:26.696Z,-5.45
2023-02-18T16:36:00.241Z,-5.54
2023-02-18T16:38:34.394Z,-5.48
2023-02-18T16:41:08.573Z,-5.49
2023-02-18T16:43:42.005Z,-5.48
2023-02-18T16:46:19.139Z,-5.41
2023-02-18T16:48:55.911Z,-5.43
2023-02-18T16:51:33.358Z,-5.47
2023-02-18T16:54:07.064Z,-5.47
2023-02-18T16:56:41.393Z,-5.50
2023-02-18T16:59:14.912Z,-5.51
2023-02-18T17:01:48.244Z,-5.52
2023-02-18T17:04:23.745Z,-5.54
2023-02-18T17:06:57.529Z,-5.45
2023-02-18T17:09:30.801Z,-5.47
2023-02-18T17:12:05.124Z,-5.50
2023-02-18T17:14:39.252Z,-5.51
2023-02-18T17:17:14.455Z,-5.51
2023-02-18T17:19:47.948Z,-5.51
2023-02-18T17:22:21.173Z,-5.56
2023-02-18T17:24:54.524Z,-5.41
2023-02-18T17:27:27.841Z,-5.44
2023-02-18T17:30:01.298Z,-5.50
2023-02-18T17:32:35.623Z,-5.47
2023-02-18T17:35:11.498Z,-5.42
2023-02-18T17:37:45.169Z,-5.44
2023-02-18T17:40:23.665Z,-5.48
2023-02-18T17:42:57.908Z,-5.48
2023-02-18T17:45:34.635Z,-5.44
2023-02-18T17:48:08.788Z,-5.44
2023-02-18T17:50:42.836Z,-5.43
2023-02-18T17:53:18.648Z,-5.45
2023-02-18T17:55:52.284Z,-5.40
2023-02-18T17:58:25.857Z,-5.37
2023-02-18T18:01:00.256Z,-5.37
2023-02-18T18:03:33.559Z,-5.42
2023-02-18T18:06:10.351Z,-5.34
2023-02-18T18:08:44.177Z,-5.36
2023-02-18T18:11:20.459Z,-5.40
2023-02-18T18:13:54.216Z,-5.40
2023-02-18T18:16:28.035Z,-5.38
2023-02-18T18:19:01.494Z,-5.33
2023-02-18T18:21:37.045Z,-5.40
2023-02-18T18:24:13.802Z,-5.36
2023-02-18T18:26:47.641Z,-5.34
2023-02-18T18:29:21.435Z,-5.39
2023-02-18T18:31:58.558Z,-5.34
2023-02-18T18:34:33.598Z,-5.36
2023-02-18T18:37:09.042Z,-5.33
2023-02-18T18:39:43.488Z,-5.33
2023-02-18T18:42:17.179Z,-5.35
2023-02-18T18:44:51.996Z,-5.37
2023-02-18T18:47:31.350Z,-5.38
2023-02-18T18:50:06.000Z,-5.41
2023-02-18T18:52:40.819Z,-5.39
2023-02-18T18:55:27.166Z,-5.38
2023-02-18T18:58:01.989Z,-5.39
2023-02-18T19:00:37.465Z,-5.41
2023-02-18T19:03:13.398Z,-5.38
2023-02-18T19:05:48.145Z,-5.42
2023-02-18T19:08:29.500Z,-5.45
2023-02-18T19:11:06.117Z,-5.41
2023-02-18T19:13:39.916Z,-5.48
2023-02-18T19:16:20.197Z,-5.46
2023-02-18T19:18:54.405Z,-5.47
2023-02-18T19:21:28.264Z,-5.39
2023-02-18T19:24:01.553Z,-5.44
2023-02-18T19:26:35.297Z,-5.38
2023-02-18T19:29:08.692Z,-5.45
2023-02-18T19:31:43.922Z,-5.52
2023-02-18T19:34:19.299Z,-5.38
2023-02-18T19:36:55.832Z,-5.43
2023-02-18T19:39:29.243Z,-5.37
2023-02-18T19:42:02.921Z,-5.61
2023-02-18T19:44:37.789Z,-5.53
2023-02-18T19:47:13.118Z,-5.61
2023-02-18T19:49:47.045Z,-5.57
2023-02-18T19:52:21.548Z,-5.52
2023-02-18T19:54:57.746Z,-5.59
2023-02-18T19:57:32.301Z,-5.65
2023-02-18T20:00:09.755Z,-5.62
2023-02-18T20:02:45.536Z,-5.67
2023-02-18T20:05:25.708Z,-5.67
2023-02-18T20:08:00.397Z,-5.69
2023-02-18T20:10:37.226Z,-5.66
2023-02-18T20:13:14.160Z,-5.66
2023-02-18T20:15:54.042Z,-5.66
2023-02-18T20:18:30.041Z,-5.67
2023-02-18T20:21:04.368Z,-5.73
2023-02-18T20:23:38.050Z,-5.69
2023-02-18T20:26:12.896Z,-5.79
2023-02-18T20:28:46.506Z,-5.79
2023-02-18T20:31:20.628Z,-5.80
2023-02-18T20:33:55.647Z,-5.74
2023-02-18T20:36:29.656Z,-5.75
2023-02-18T20:39:15.816Z,-5.80
2023-02-18T20:41:38.653Z,-5.88
2023-02-18T20:44:12.044Z,-5.85
2023-02-18T20:46:46.431Z,-5.80
2023-02-18T20:49:22.079Z,-5.83
2023-02-18T20:51:55.580Z,-5.85
2023-02-18T20:54:29.621Z,-5.92
2023-02-18T20:57:03.793Z,-5.90
2023-02-18T20:59:37.022Z,-5.87
2023-02-18T21:02:11.789Z,-5.88
2023-02-18T21:04:45.763Z,-5.96
2023-02-18T21:07:19.068Z,-5.99
2023-02-18T21:09:52.598Z,-5.97
2023-02-18T21:12:25.884Z,-5.97
2023-02-18T21:14:59.154Z,-5.92
2023-02-18T21:17:36.932Z,-5.92
2023-02-18T21:20:11.859Z,-5.95
2023-02-18T21:22:45.395Z,-6.00
2023-02-18T21:25:19.004Z,-6.03
2023-02-18T21:27:52.068Z,-6.02
2023-02-18T21:30:25.623Z,-5.95
2023-02-18T21:32:59.486Z,-6.01
2023-02-18T21:35:33.203Z,-5.94
2023-02-18T21:38:10.649Z,-6.01
2023-02-18T21:40:45.161Z,-6.03
2023-02-18T21:43:18.617Z,-6.10
2023-02-18T21:45:53.271Z,-6.06
2023-02-18T21:48:44.153Z,-6.03
2023-02-18T21:51:20.962Z,-6.05
2023-02-18T21:53:54.543Z,-6.15
2023-02-18T21:56:28.028Z,-6.20
2023-02-18T21:59:01.478Z,-6.14
2023-02-18T22:01:34.908Z,-6.18
2023-02-18T22:04:08.390Z,-6.17
2023-02-18T22:06:41.794Z,-6.24
2023-02-18T22:09:16.112Z,-6.27
2023-02-18T22:11:49.984Z,-6.18
2023-02-18T22:14:23.563Z,-6.23
2023-02-18T22:16:57.253Z,-6.20
2023-02-18T22:19:30.745Z,-6.21
2023-02-18T22:22:04.025Z,-6.26
2023-02-18T22:24:37.882Z,-6.29
2023-02-18T22:27:12.032Z,-6.29
2023-02-18T22:29:47.377Z,-6.31
2023-02-18T22:32:21.248Z,-6.31
2023-02-18T22:34:55.995Z,-6.31
2023-02-18T22:37:29.256Z,-6.31
2023-02-18T22:40:02.902Z,-6.28
2023-02-18T22:42:39.137Z,-6.32
2023-02-18T22:45:12.729Z,-6.35
2023-02-18T22:47:46.189Z,-6.39
2023-02-18T22:50:19.712Z,-6.36
2023-02-18T22:52:53.316Z,-6.42
2023-02-18T22:55:27.013Z,-6.39
2023-02-18T22:58:00.386Z,-6.37
2023-02-18T23:00:33.837Z,-6.42
2023-02-18T23:03:09.449Z,-6.36
2023-02-18T23:05:43.054Z,-6.37
2023-02-18T23:08:16.658Z,-6.37
2023-02-18T23:10:51.327Z,-6.41
2023-02-18T23:13:24.678Z,-6.38
2023-02-18T23:16:02.232Z,-6.37
2023-02-18T23:18:35.177Z,-6.38
2023-02-18T23:21:18.500Z,-6.38
2023-02-18T23:23:53.460Z,-6.42
2023-02-18T23:26:28.059Z,-6.40
2023-02-18T23:29:01.396Z,-6.42
2023-02-18T23:31:39.854Z,-6.42
2023-02-18T23:34:17.362Z,-6.44
2023-02-18T23:36:51.022Z,-6.44
2023-02-18T23:39:25.684Z,-6.44
2023-02-18T23:41:59.390Z,-6.43
2023-02-18T23:44:33.524Z,-6.43
2023-02-18T23:47:06.932Z,-6.45
2023-02-18T23:49:40.082Z,-6.49
2023-02-18T23:52:14.400Z,-6.51
2023-02-18T23:54:47.925Z,-6.44
2023-02-18T23:57:21.433Z,-6.50
2023-02-18T23:59:54.931Z,-6.52
